Time;durP1;ratioP1;P1;durP2;ratioP2;P2;SDS_P1;SDS_P2;PMS_P1;PMS_P2;Temp;Humidity;BMP_temperature;BMP_pressure;BME280_temperature;BME280_humidity;BME280_pressure;Samples;Min_cycle;Max_cycle;Signal;HPM_P1;HPM_P2
2022/11/15 00:00:48;;;;;;;37.47;18.00;;;6.20;85.40;;;;;;4989967;28;20690;-72
2022/11/15 00:03:15;;;;;;;35.70;17.97;;;6.20;85.40;;;;;;5002989;28;20188;-71
2022/11/15 00:05:41;;;;;;;32.90;18.47;;;6.10;85.30;;;;;;5002046;28;20185;-71
2022/11/15 00:08:07;;;;;;;42.00;20.40;;;6.20;85.70;;;;;;4984085;28;20260;-71
2022/11/15 00:10:33;;;;;;;44.83;20.23;;;6.10;85.80;;;;;;5004320;28;20598;-72
2022/11/15 00:12:59;;;;;;;35.97;19.67;;;6.10;85.70;;;;;;4984627;28;20675;-71
2022/11/15 00:15:24;;;;;;;37.87;18.03;;;6.10;86.20;;;;;;5002690;28;20197;-71
2022/11/15 00:17:50;;;;;;;35.80;17.63;;;6.10;86.40;;;;;;5005643;28;20755;-72
2022/11/15 00:20:17;;;;;;;30.33;16.53;;;6.10;86.40;;;;;;5003674;28;20215;-71
2022/11/15 00:22:43;;;;;;;33.23;16.93;;;6.00;86.40;;;;;;5004498;28;20185;-72
2022/11/15 00:25:08;;;;;;;30.07;15.77;;;6.00;86.10;;;;;;5002122;28;20188;-71
2022/11/15 00:27:34;;;;;;;35.90;16.33;;;6.00;86.20;;;;;;5003236;28;20188;-72
2022/11/15 00:30:00;;;;;;;30.67;16.73;;;6.00;86.20;;;;;;5002366;28;20227;-72
2022/11/15 00:32:26;;;;;;;33.30;17.20;;;6.00;86.40;;;;;;5003114;28;20830;-72
2022/11/15 00:34:52;;;;;;;30.77;15.03;;;5.90;85.90;;;;;;5001516;28;20181;-72
2022/11/15 00:37:17;;;;;;;31.37;15.80;;;6.00;86.50;;;;;;5005791;28;20579;-72
2022/11/15 00:39:43;;;;;;;32.47;16.67;;;5.90;86.40;;;;;;5005037;28;20184;-73
2022/11/15 00:42:08;;;;;;;30.27;16.07;;;5.90;86.10;;;;;;5008553;28;20185;-70
2022/11/15 00:44:34;;;;;;;37.80;18.27;;;5.90;85.70;;;;;;5006681;28;20611;-71
2022/11/15 00:47:00;;;;;;;37.13;17.93;;;5.80;85.60;;;;;;5005727;28;20181;-72
2022/11/15 00:49:25;;;;;;;36.53;16.67;;;5.80;85.80;;;;;;5007806;28;20181;-72
2022/11/15 00:51:51;;;;;;;28.37;16.40;;;5.80;86.00;;;;;;5008695;28;20216;-72
2022/11/15 00:54:16;;;;;;;27.73;16.07;;;5.80;86.20;;;;;;4989822;28;20686;-72
2022/11/15 00:56:42;;;;;;;32.93;16.53;;;5.80;85.90;;;;;;5007408;28;20193;-71
2022/11/15 00:59:08;;;;;;;30.57;17.43;;;5.80;86.00;;;;;;5004453;28;20193;-71
2022/11/15 01:01:33;;;;;;;32.63;15.43;;;5.80;85.80;;;;;;5010105;28;20189;-70
2022/11/15 01:03:59;;;;;;;28.43;16.67;;;5.80;86.00;;;;;;5005441;28;20203;-71
2022/11/15 01:06:25;;;;;;;42.97;20.77;;;5.80;86.00;;;;;;5004865;28;21542;-70
2022/11/15 01:08:50;;;;;;;35.67;19.63;;;5.70;86.30;;;;;;5005912;28;20230;-70
2022/11/15 01:11:16;;;;;;;31.97;18.80;;;5.70;86.10;;;;;;5007346;28;20217;-71
2022/11/15 01:13:41;;;;;;;38.13;20.43;;;5.70;86.20;;;;;;5006233;28;20185;-72
2022/11/15 01:16:10;;;;;;;36.40;18.80;;;5.70;86.40;;;;;;5008554;28;20211;-72
2022/11/15 01:18:36;;;;;;;29.60;15.50;;;5.70;86.90;;;;;;4987789;28;20794;-72
2022/11/15 01:21:16;;;;;;;26.27;15.47;;;5.70;87.80;;;;;;5007639;28;20189;-72
2022/11/15 01:23:42;;;;;;;30.07;15.57;;;5.70;86.90;;;;;;5003360;28;20192;-71
2022/11/15 01:26:12;;;;;;;33.90;15.87;;;5.60;86.60;;;;;;5005445;28;20181;-70
2022/11/15 01:28:39;;;;;;;32.57;14.30;;;5.60;86.90;;;;;;5005845;28;20181;-72
2022/11/15 01:31:11;;;;;;;24.30;12.47;;;5.60;87.00;;;;;;5005293;28;20212;-71
2022/11/15 01:33:36;;;;;;;23.40;12.67;;;5.50;86.80;;;;;;5006360;28;20177;-71
2022/11/15 01:36:08;;;;;;;24.27;12.43;;;5.50;87.10;;;;;;5006419;28;20260;-72
2022/11/15 01:38:34;;;;;;;21.70;12.23;;;5.50;87.40;;;;;;4988434;28;20690;-72
2022/11/15 01:41:00;;;;;;;25.73;12.87;;;5.50;87.20;;;;;;5007194;28;20210;-72
2022/11/15 01:43:32;;;;;;;26.80;12.63;;;5.50;87.40;;;;;;5003613;28;20209;-71
2022/11/15 01:46:21;;;;;;;24.83;13.17;;;5.50;87.10;;;;;;5007206;28;20177;-71
2022/11/15 01:48:47;;;;;;;20.40;12.93;;;5.50;86.90;;;;;;5004712;28;20197;-71
2022/11/15 01:51:15;;;;;;;27.37;13.90;;;5.40;87.10;;;;;;5004941;28;20220;-71
2022/11/15 01:53:46;;;;;;;29.07;14.57;;;5.40;87.00;;;;;;5004445;28;20760;-71
2022/11/15 01:56:16;;;;;;;22.53;13.03;;;5.40;86.80;;;;;;5005237;28;20227;-72
2022/11/15 01:58:45;;;;;;;23.60;12.83;;;5.40;86.90;;;;;;5007621;28;20193;-71
2022/11/15 02:01:12;;;;;;;22.63;12.53;;;5.40;86.90;;;;;;4989550;28;20280;-71
2022/11/15 02:03:51;;;;;;;25.57;14.00;;;5.40;86.80;;;;;;5005755;28;20280;-71
2022/11/15 02:06:18;;;;;;;28.80;13.80;;;5.40;86.80;;;;;;5008633;28;20187;-71
2022/11/15 02:08:44;;;;;;;23.53;13.43;;;5.40;87.00;;;;;;5004125;28;20291;-71
2022/11/15 02:11:10;;;;;;;26.10;12.90;;;5.40;86.90;;;;;;5004364;28;20647;-72
2022/11/15 02:13:36;;;;;;;24.10;14.17;;;5.40;86.80;;;;;;5004137;28;20181;-72
2022/11/15 02:16:02;;;;;;;24.63;15.10;;;5.40;86.70;;;;;;5005784;28;20213;-71
2022/11/15 02:18:48;;;;;;;29.80;14.20;;;5.40;86.80;;;;;;5006312;28;20726;-72
2022/11/15 02:21:19;;;;;;;26.80;14.07;;;5.40;86.50;;;;;;5006805;28;20196;-70
2022/11/15 02:23:54;;;;;;;25.30;15.97;;;5.40;86.80;;;;;;5003768;28;20239;-72
2022/11/15 02:26:26;;;;;;;32.47;16.03;;;5.30;86.70;;;;;;5005638;28;20564;-72
2022/11/15 02:29:10;;;;;;;31.93;16.47;;;5.30;86.70;;;;;;5005906;28;20193;-72
2022/11/15 02:31:38;;;;;;;38.87;17.50;;;5.30;86.70;;;;;;5004661;28;20215;-72
2022/11/15 02:34:19;;;;;;;37.40;17.47;;;5.30;86.80;;;;;;5007677;28;20187;-70
2022/11/15 02:36:58;;;;;;;31.87;18.60;;;5.30;86.60;;;;;;5004594;28;20237;-72
2022/11/15 02:39:35;;;;;;;41.50;20.53;;;5.30;86.50;;;;;;5004415;28;20192;-72
2022/11/15 02:43:56;;;;;;;38.97;19.07;;;5.30;86.80;;;;;;5006115;28;20180;-72
2022/11/15 02:45:03;;;;;;;33.83;17.83;;;5.30;86.80;;;;;;5005786;28;20199;-72
2022/11/15 02:47:32;;;;;;;40.37;18.57;;;5.30;87.00;;;;;;5004597;28;20227;-71
2022/11/15 02:50:08;;;;;;;30.03;17.67;;;5.40;86.90;;;;;;5003391;28;20232;-71
2022/11/15 02:52:33;;;;;;;36.73;19.07;;;5.40;87.20;;;;;;5003441;28;20187;-71
2022/11/15 02:55:00;;;;;;;38.57;17.60;;;5.40;87.50;;;;;;5002484;28;20192;-71
2022/11/15 02:58:00;;;;;;;30.53;16.57;;;5.50;87.60;;;;;;5005631;28;20276;-70
2022/11/15 03:00:28;;;;;;;33.07;16.57;;;5.50;87.70;;;;;;5003861;28;20197;-71
2022/11/15 03:03:13;;;;;;;27.97;17.23;;;5.60;88.10;;;;;;5004439;28;20184;-71
2022/11/15 03:06:02;;;;;;;35.20;17.60;;;5.60;87.60;;;;;;5003542;28;20181;-71
2022/11/15 03:08:41;;;;;;;28.63;16.60;;;5.70;87.60;;;;;;5004745;28;20181;-73
2022/11/15 03:11:15;;;;;;;27.73;15.97;;;5.70;87.50;;;;;;5003078;28;20323;-71
2022/11/15 03:14:09;;;;;;;30.73;16.23;;;5.70;87.80;;;;;;5004077;28;20289;-72
2022/11/15 03:17:01;;;;;;;32.17;15.37;;;5.80;87.80;;;;;;5005254;28;20188;-71
2022/11/15 03:19:27;;;;;;;42.13;18.20;;;5.80;87.70;;;;;;4924506;29;20274;-71
2022/11/15 03:21:57;;;;;;;33.47;17.40;;;5.80;87.80;;;;;;4922551;29;20446;-71
2022/11/15 03:24:25;;;;;;;33.43;17.70;;;5.80;87.90;;;;;;4924213;29;20199;-72
2022/11/15 03:26:53;;;;;;;33.50;15.90;;;5.80;87.70;;;;;;4924821;29;20195;-72
2022/11/15 03:29:38;;;;;;;32.53;17.23;;;5.90;87.90;;;;;;4908168;29;20191;-71
2022/11/15 03:32:11;;;;;;;32.47;14.70;;;5.90;87.50;;;;;;4923115;29;20199;-71
2022/11/15 03:35:00;;;;;;;36.33;16.70;;;5.90;87.40;;;;;;4923823;29;20204;-71
2022/11/15 03:37:35;;;;;;;31.47;16.57;;;5.90;86.90;;;;;;4926225;29;20274;-72
2022/11/15 03:40:02;;;;;;;32.13;17.17;;;5.90;87.20;;;;;;4922136;29;20197;-72
2022/11/15 03:42:45;;;;;;;34.10;16.60;;;5.90;87.30;;;;;;4924015;29;20240;-71
2022/11/15 03:45:17;;;;;;;45.83;18.60;;;6.00;86.80;;;;;;4923135;29;20204;-71
2022/11/15 03:47:51;;;;;;;36.00;16.27;;;6.00;86.90;;;;;;4922353;29;20211;-71
2022/11/15 03:50:22;;;;;;;34.33;16.83;;;6.00;86.50;;;;;;4925401;29;20223;-72
2022/11/15 03:52:49;;;;;;;38.43;17.47;;;6.00;86.30;;;;;;4921174;29;20295;-70
2022/11/15 03:55:18;;;;;;;37.20;17.37;;;6.10;86.30;;;;;;4923100;29;20263;-71
2022/11/15 03:57:44;;;;;;;33.60;17.33;;;6.10;86.20;;;;;;5003932;28;20177;-71
2022/11/15 04:00:11;;;;;;;34.33;16.77;;;6.10;86.90;;;;;;5004341;28;20261;-71
2022/11/15 04:02:37;;;;;;;33.57;17.83;;;6.10;86.40;;;;;;5002165;28;20201;-70
2022/11/15 04:05:03;;;;;;;31.47;17.17;;;6.20;86.70;;;;;;5002855;28;20571;-72
2022/11/15 04:07:29;;;;;;;37.10;18.00;;;6.20;86.20;;;;;;5001578;28;20683;-71
2022/11/15 04:10:05;;;;;;;39.03;16.50;;;6.20;86.40;;;;;;5002966;28;20220;-72
2022/11/15 04:12:36;;;;;;;34.80;18.20;;;6.20;87.00;;;;;;4985144;28;20187;-72
2022/11/15 04:15:08;;;;;;;47.03;19.80;;;6.30;87.00;;;;;;5002549;28;20717;-72
2022/11/15 04:17:38;;;;;;;42.37;18.70;;;6.30;86.30;;;;;;5003077;28;20256;-72
2022/11/15 04:25:37;;;;;;;40.53;17.80;;;6.30;86.20;;;;;;5003232;28;20514;-72
2022/11/15 04:28:02;;;;;;;40.33;18.57;;;6.20;85.70;;;;;;5003163;28;20185;-73
2022/11/15 04:30:28;;;;;;;43.37;18.80;;;6.30;85.70;;;;;;5003213;28;20208;-72
2022/11/15 04:32:53;;;;;;;39.20;19.20;;;6.30;85.60;;;;;;5001629;28;20243;-71
2022/11/15 04:35:19;;;;;;;35.33;17.93;;;6.30;85.40;;;;;;5003644;28;20188;-71
2022/11/15 04:37:45;;;;;;;35.43;18.60;;;6.30;85.90;;;;;;5002341;28;20708;-71
2022/11/15 04:40:11;;;;;;;48.17;18.63;;;6.30;85.00;;;;;;5002940;28;20984;-72
2022/11/15 04:42:36;;;;;;;50.70;20.93;;;6.30;84.80;;;;;;5004305;28;20185;-71
2022/11/15 04:45:02;;;;;;;45.33;18.90;;;6.30;85.30;;;;;;5000560;28;20590;-71
2022/11/15 04:47:29;;;;;;;44.47;20.27;;;6.30;85.60;;;;;;5004497;28;20188;-71
2022/11/15 04:49:54;;;;;;;39.97;18.07;;;6.30;85.80;;;;;;5003578;28;20659;-72
2022/11/15 04:52:20;;;;;;;45.47;18.63;;;6.30;85.10;;;;;;5001463;28;20185;-71
2022/11/15 04:54:46;;;;;;;43.57;18.33;;;6.30;84.90;;;;;;5003000;28;20196;-72
2022/11/15 04:57:11;;;;;;;40.50;16.90;;;6.30;85.50;;;;;;5003077;28;20193;-71
2022/11/15 04:59:37;;;;;;;38.63;17.57;;;6.30;87.50;;;;;;5002078;28;20209;-71
2022/11/15 05:02:03;;;;;;;40.67;19.20;;;6.30;87.10;;;;;;5000767;28;20247;-73
2022/11/15 05:04:28;;;;;;;45.33;18.33;;;6.30;86.80;;;;;;5002059;28;20216;-73
2022/11/15 05:06:54;;;;;;;50.87;19.20;;;6.30;86.20;;;;;;5003503;28;20185;-72
2022/11/15 05:09:20;;;;;;;36.53;16.33;;;6.20;85.80;;;;;;5002028;28;20196;-73
2022/11/15 05:11:46;;;;;;;38.57;17.17;;;6.30;86.10;;;;;;5000357;28;20359;-74
2022/11/15 05:14:12;;;;;;;53.03;19.00;;;6.30;85.90;;;;;;5000484;28;20197;-72
2022/11/15 05:16:38;;;;;;;48.43;17.33;;;6.30;86.90;;;;;;5000771;28;20271;-72
2022/11/15 05:19:05;;;;;;;50.00;19.37;;;6.30;86.30;;;;;;4999440;28;20196;-73
2022/11/15 05:21:31;;;;;;;46.23;20.00;;;6.30;85.90;;;;;;4986339;28;20686;-72
2022/11/15 05:23:57;;;;;;;38.27;17.73;;;6.30;86.20;;;;;;5004373;28;20196;-74
2022/11/15 05:26:22;;;;;;;54.17;18.97;;;6.30;86.70;;;;;;4990697;28;20204;-74
2022/11/15 05:28:56;;;;;;;46.70;19.27;;;6.30;85.70;;;;;;5007079;28;20182;-75
2022/11/15 05:31:22;;;;;;;50.03;19.07;;;6.30;85.40;;;;;;5005649;28;20212;-75
2022/11/15 05:33:50;;;;;;;46.63;20.50;;;6.30;86.50;;;;;;5007873;28;20248;-73
2022/11/15 05:36:48;;;;;;;43.67;19.47;;;6.30;86.20;;;;;;5006186;28;20834;-74
2022/11/15 05:39:13;;;;;;;47.10;17.27;;;6.40;85.80;;;;;;4907675;29;20694;-74
2022/11/15 05:41:50;;;;;;;46.60;17.40;;;6.40;86.80;;;;;;4916723;29;20200;-74
2022/11/15 05:44:19;;;;;;;42.37;19.67;;;6.40;86.40;;;;;;4917846;29;20196;-77
2022/11/15 05:46:46;;;;;;;50.80;20.43;;;6.40;86.70;;;;;;4921373;29;20274;-74
2022/11/15 05:49:18;;;;;;;33.73;15.60;;;6.50;86.40;;;;;;4915788;29;20203;-75
2022/11/15 05:51:46;;;;;;;24.00;12.03;;;6.50;87.20;;;;;;4915238;29;20356;-74
2022/11/15 05:54:12;;;;;;;27.43;13.10;;;6.50;87.70;;;;;;4917228;29;20324;-75
2022/11/15 05:56:39;;;;;;;20.37;10.27;;;6.40;87.00;;;;;;4919644;29;20200;-74
2022/11/15 05:59:07;;;;;;;23.63;11.27;;;6.40;87.40;;;;;;4918477;29;20237;-77
2022/11/15 06:01:33;;;;;;;18.93;10.10;;;6.30;87.00;;;;;;4919610;29;20713;-75
2022/11/15 06:03:58;;;;;;;28.10;10.10;;;6.20;87.10;;;;;;4923705;29;20192;-75
2022/11/15 06:06:24;;;;;;;22.73;10.87;;;6.20;87.60;;;;;;4922708;29;20852;-70
2022/11/15 06:08:49;;;;;;;22.17;11.93;;;6.00;87.90;;;;;;4919792;29;20203;-73
2022/11/15 06:11:15;;;;;;;28.77;11.60;;;5.90;88.10;;;;;;4922871;29;20219;-73
2022/11/15 06:13:41;;;;;;;22.10;10.40;;;5.90;88.00;;;;;;4926532;28;20188;-74
2022/11/15 06:16:07;;;;;;;30.47;10.93;;;6.00;88.00;;;;;;5005769;28;20184;-74
2022/11/15 06:18:34;;;;;;;23.17;10.70;;;6.00;87.50;;;;;;5006082;28;20185;-74
2022/11/15 06:21:00;;;;;;;18.60;9.77;;;6.00;87.00;;;;;;5004426;28;20264;-73
2022/11/15 06:23:27;;;;;;;32.40;11.43;;;6.00;87.10;;;;;;5003771;28;20767;-73
2022/11/15 06:25:53;;;;;;;20.03;9.73;;;6.10;86.70;;;;;;5005163;28;20189;-73
2022/11/15 06:28:18;;;;;;;22.27;11.73;;;6.10;87.10;;;;;;5008505;28;20188;-73
2022/11/15 06:30:44;;;;;;;34.53;13.40;;;6.10;86.80;;;;;;4986135;28;20212;-73
2022/11/15 06:33:10;;;;;;;38.13;13.93;;;6.20;87.10;;;;;;4986232;28;20185;-73
2022/11/15 06:35:36;;;;;;;29.97;13.90;;;6.30;87.10;;;;;;5006537;28;20458;-74
2022/11/15 06:38:09;;;;;;;36.67;13.77;;;6.30;88.20;;;;;;5005943;28;20185;-74
2022/11/15 06:40:36;;;;;;;38.53;14.30;;;6.30;87.40;;;;;;5006037;28;20208;-74
2022/11/15 06:43:03;;;;;;;41.83;15.07;;;6.40;88.10;;;;;;5004375;28;20583;-74
2022/11/15 06:45:29;;;;;;;33.73;15.60;;;6.40;87.20;;;;;;4987322;28;20263;-74
2022/11/15 06:47:54;;;;;;;37.73;14.67;;;6.40;86.80;;;;;;5006574;28;20192;-73
2022/11/15 06:50:20;;;;;;;33.10;14.40;;;6.50;89.20;;;;;;4987338;28;20209;-74
2022/11/15 06:52:46;;;;;;;34.83;13.17;;;6.60;88.70;;;;;;4986362;28;20686;-73
2022/11/15 06:55:11;;;;;;;31.30;13.70;;;6.60;89.80;;;;;;5004773;28;20196;-73
2022/11/15 06:57:45;;;;;;;34.90;15.00;;;6.60;88.50;;;;;;5005271;28;20272;-74
2022/11/15 07:00:11;;;;;;;43.07;15.63;;;6.50;88.00;;;;;;5006686;28;20185;-73
2022/11/15 07:02:37;;;;;;;34.40;14.60;;;6.60;88.00;;;;;;5006666;28;20181;-73
2022/11/15 07:05:03;;;;;;;35.83;14.30;;;6.60;88.00;;;;;;5005955;28;20263;-72
2022/11/15 07:07:28;;;;;;;25.87;11.93;;;6.60;87.70;;;;;;5004489;28;20188;-73
2022/11/15 07:09:54;;;;;;;32.03;14.03;;;6.70;88.90;;;;;;4985864;28;20276;-73
2022/11/15 07:12:20;;;;;;;27.87;13.27;;;6.70;88.30;;;;;;5004325;28;20336;-74
2022/11/15 07:14:46;;;;;;;34.50;12.77;;;6.80;89.50;;;;;;5003345;28;20181;-74
2022/11/15 07:17:11;;;;;;;28.67;13.47;;;6.80;88.30;;;;;;5002000;28;21719;-72
2022/11/15 07:19:37;;;;;;;24.67;12.23;;;6.80;87.90;;;;;;5003197;28;20216;-74
2022/11/15 07:22:03;;;;;;;29.73;12.17;;;6.80;87.60;;;;;;5004647;28;20180;-73
2022/11/15 07:24:28;;;;;;;24.57;11.93;;;6.80;87.60;;;;;;5005461;28;20176;-72
2022/11/15 07:26:54;;;;;;;26.40;12.40;;;6.90;88.10;;;;;;5005219;28;20181;-74
2022/11/15 07:29:20;;;;;;;33.97;13.33;;;6.90;87.50;;;;;;4988436;28;20234;-74
2022/11/15 07:31:45;;;;;;;28.13;12.37;;;6.90;88.40;;;;;;5003996;28;20680;-72
2022/11/15 07:34:11;;;;;;;26.37;12.90;;;6.90;87.80;;;;;;5004557;28;20267;-73
2022/11/15 07:36:37;;;;;;;34.67;14.67;;;6.90;87.30;;;;;;5004379;28;20256;-73
2022/11/15 07:39:02;;;;;;;24.97;12.23;;;6.90;87.20;;;;;;5004792;28;20259;-74
2022/11/15 07:41:29;;;;;;;31.77;13.43;;;7.00;87.10;;;;;;5005858;28;20304;-74
2022/11/15 07:43:55;;;;;;;22.80;12.93;;;7.00;87.00;;;;;;4987481;28;20744;-74
2022/11/15 07:46:20;;;;;;;32.07;13.60;;;7.00;87.00;;;;;;5004771;28;20335;-74
2022/11/15 07:48:46;;;;;;;32.53;13.73;;;7.10;86.80;;;;;;5005578;28;20690;-74
2022/11/15 07:51:14;;;;;;;28.10;12.63;;;7.10;86.80;;;;;;5004423;28;20311;-74
2022/11/15 07:53:39;;;;;;;32.83;13.00;;;7.20;86.60;;;;;;5005445;28;20181;-74
2022/11/15 07:56:09;;;;;;;25.00;11.70;;;7.20;86.70;;;;;;5002979;28;20193;-74
2022/11/15 07:58:34;;;;;;;30.27;12.50;;;7.30;87.30;;;;;;5005457;28;20185;-73
2022/11/15 08:01:04;;;;;;;32.43;13.80;;;7.30;86.50;;;;;;5003842;28;20679;-74
2022/11/15 08:03:30;;;;;;;29.53;15.27;;;7.40;86.60;;;;;;5005732;28;20184;-73
2022/11/15 08:05:56;;;;;;;29.10;13.50;;;7.40;86.80;;;;;;5004812;28;20185;-73
2022/11/15 08:08:21;;;;;;;33.77;14.80;;;7.40;87.00;;;;;;5005277;28;20271;-71
2022/11/15 08:10:47;;;;;;;30.37;14.90;;;7.30;86.70;;;;;;5003637;28;20216;-73
2022/11/15 08:13:13;;;;;;;33.40;15.00;;;7.30;87.30;;;;;;5004468;28;20220;-73
2022/11/15 08:15:39;;;;;;;38.13;15.80;;;7.40;87.20;;;;;;5004916;28;20272;-74
2022/11/15 08:18:09;;;;;;;37.97;15.77;;;7.30;86.60;;;;;;5003037;28;20259;-74
2022/11/15 08:20:35;;;;;;;35.50;15.70;;;7.40;87.70;;;;;;5003938;28;20188;-74
2022/11/15 08:23:02;;;;;;;31.73;15.70;;;7.40;86.90;;;;;;5002281;28;20188;-74
2022/11/15 08:25:30;;;;;;;37.57;16.27;;;7.30;86.90;;;;;;5003731;28;20333;-73
2022/11/15 08:28:02;;;;;;;41.43;16.47;;;7.30;86.90;;;;;;5002356;28;20180;-74
2022/11/15 08:30:28;;;;;;;32.17;17.23;;;7.40;86.90;;;;;;5004865;28;20294;-73
2022/11/15 08:32:57;;;;;;;37.67;16.90;;;7.40;87.10;;;;;;5003924;28;20180;-73
2022/11/15 08:35:23;;;;;;;33.40;16.07;;;7.50;87.20;;;;;;5004464;28;20181;-73
2022/11/15 08:37:49;;;;;;;42.53;18.80;;;7.50;87.10;;;;;;5003741;28;20189;-73
2022/11/15 08:40:15;;;;;;;42.67;18.80;;;7.60;86.70;;;;;;5004637;28;20698;-73
2022/11/15 08:42:41;;;;;;;44.43;19.30;;;7.60;86.70;;;;;;5005007;28;20240;-75
2022/11/15 08:45:08;;;;;;;36.57;17.47;;;7.70;86.70;;;;;;5005989;28;20188;-74
2022/11/15 08:47:34;;;;;;;36.47;17.33;;;7.80;87.20;;;;;;5003344;28;20184;-74
2022/11/15 08:50:00;;;;;;;43.80;17.33;;;7.80;86.50;;;;;;5002546;28;20181;-71
2022/11/15 08:52:26;;;;;;;37.03;18.53;;;7.70;86.60;;;;;;4999422;28;20684;-73
2022/11/15 08:54:52;;;;;;;41.37;16.93;;;7.70;86.40;;;;;;5000733;28;20196;-73
2022/11/15 08:57:17;;;;;;;35.57;15.83;;;7.80;86.70;;;;;;4995463;28;20272;-75
2022/11/15 08:59:43;;;;;;;33.60;16.50;;;7.90;86.90;;;;;;5006148;28;20185;-75
2022/11/15 09:02:14;;;;;;;34.57;16.60;;;8.00;87.00;;;;;;5007768;28;20252;-76
2022/11/15 09:04:41;;;;;;;36.67;16.10;;;8.00;86.40;;;;;;5006631;28;20217;-74
2022/11/15 09:07:07;;;;;;;32.83;15.03;;;8.00;87.00;;;;;;5004331;28;20185;-74
2022/11/15 09:09:33;;;;;;;31.70;16.20;;;8.20;87.00;;;;;;5005687;28;20193;-73
2022/11/15 09:11:58;;;;;;;41.00;17.53;;;8.20;86.60;;;;;;5005036;28;20213;-74
2022/11/15 09:14:24;;;;;;;30.07;14.50;;;8.20;86.40;;;;;;5008381;28;20263;-73
2022/11/15 09:16:50;;;;;;;32.63;16.73;;;8.20;86.40;;;;;;5001730;28;20350;-74
2022/11/15 09:19:15;;;;;;;32.57;16.10;;;8.20;86.10;;;;;;4985097;28;20189;-74
2022/11/15 09:21:41;;;;;;;35.73;17.93;;;8.10;86.00;;;;;;4987197;28;20185;-74
2022/11/15 09:24:07;;;;;;;38.33;17.23;;;8.10;86.10;;;;;;5007488;28;20184;-72
2022/11/15 09:26:32;;;;;;;34.77;16.30;;;8.10;86.30;;;;;;5005044;28;20714;-74
2022/11/15 09:28:58;;;;;;;34.77;17.37;;;8.20;86.80;;;;;;5006498;28;20889;-73
2022/11/15 09:31:29;;;;;;;37.23;17.07;;;8.30;86.70;;;;;;5004168;28;20213;-74
2022/11/15 09:33:55;;;;;;;43.67;18.77;;;8.40;86.30;;;;;;4999425;28;20192;-74
2022/11/15 09:36:21;;;;;;;41.77;19.43;;;8.40;86.40;;;;;;5005075;28;20191;-74
2022/11/15 09:38:47;;;;;;;36.57;17.53;;;8.50;86.40;;;;;;5003318;28;20195;-74
2022/11/15 09:41:13;;;;;;;38.30;18.33;;;8.60;86.20;;;;;;5004713;28;20632;-74
2022/11/15 09:43:58;;;;;;;39.87;17.90;;;8.70;86.60;;;;;;5008360;28;20263;-74
2022/11/15 09:46:55;;;;;;;42.50;19.33;;;8.80;85.90;;;;;;5006073;28;21652;-74
2022/11/15 09:49:21;;;;;;;38.93;18.90;;;8.90;85.40;;;;;;5006424;28;20566;-74
2022/11/15 09:51:50;;;;;;;37.13;18.30;;;9.00;85.60;;;;;;5006434;28;20208;-74
2022/11/15 09:54:47;;;;;;;44.17;20.23;;;9.10;85.70;;;;;;5005342;28;20189;-74
2022/11/15 09:57:29;;;;;;;45.43;19.27;;;9.10;84.60;;;;;;4938825;28;20206;-74
2022/11/15 10:00:20;;;;;;;47.97;21.77;;;9.00;84.80;;;;;;4945268;28;20622;-74
2022/11/15 10:03:09;;;;;;;42.37;20.53;;;9.10;85.00;;;;;;4944275;28;20258;-74
2022/11/15 10:05:43;;;;;;;47.83;19.77;;;9.20;84.80;;;;;;4945371;28;20261;-74
2022/11/15 10:08:34;;;;;;;46.53;20.40;;;9.50;85.10;;;;;;4943016;28;20203;-74
2022/11/15 10:11:09;;;;;;;46.57;18.77;;;9.60;84.00;;;;;;4942858;28;20233;-74
2022/11/15 10:13:39;;;;;;;42.57;19.90;;;9.80;84.50;;;;;;4941495;28;20692;-74
2022/11/15 10:16:36;;;;;;;39.17;18.53;;;10.10;84.40;;;;;;4944410;28;20278;-76
2022/11/15 10:19:23;;;;;;;43.30;17.90;;;10.40;84.10;;;;;;4943701;28;20190;-73
2022/11/15 10:22:11;;;;;;;40.53;18.33;;;11.00;84.90;;;;;;4940867;28;20263;-74
2022/11/15 10:24:43;;;;;;;43.60;20.30;;;11.70;84.70;;;;;;4938811;28;20274;-73
2022/11/15 10:27:13;;;;;;;46.40;22.67;;;12.50;82.40;;;;;;4942432;28;20241;-74
2022/11/15 10:29:44;;;;;;;42.95;20.15;;;13.30;79.90;;;;;;4941561;28;20191;-75
2022/11/15 10:32:12;;;;;;;49.80;22.52;;;14.00;77.10;;;;;;4943358;28;20305;-74
2022/11/15 10:34:37;;;;;;;54.08;22.30;;;14.70;74.60;;;;;;4999402;28;20246;-72
2022/11/15 10:37:03;;;;;;;57.83;21.92;;;15.30;75.70;;;;;;4988782;28;20189;-74
2022/11/15 10:39:29;;;;;;;47.83;23.52;;;15.90;74.10;;;;;;5002074;28;20172;-73
2022/11/15 10:41:56;;;;;;;43.80;21.67;;;16.60;72.50;;;;;;5001378;28;20197;-73
2022/11/15 10:44:28;;;;;;;46.45;23.40;;;17.20;72.20;;;;;;4985202;28;20181;-73
2022/11/15 10:46:54;;;;;;;44.58;23.92;;;17.90;68.00;;;;;;5004644;28;20212;-74
2022/11/15 10:49:20;;;;;;;47.42;24.10;;;18.40;67.10;;;;;;5003608;28;21776;-73
2022/11/15 10:52:11;;;;;;;41.55;23.63;;;18.80;67.20;;;;;;5004489;28;20221;-74
2022/11/15 10:54:40;;;;;;;49.47;21.77;;;19.30;66.10;;;;;;5002719;28;20212;-75
2022/11/15 10:57:18;;;;;;;46.70;24.73;;;19.80;65.90;;;;;;5002894;28;20189;-73
2022/11/15 10:59:53;;;;;;;44.75;24.30;;;20.30;65.20;;;;;;5002556;28;20194;-75
2022/11/15 11:02:42;;;;;;;44.53;23.77;;;20.70;63.00;;;;;;5004179;28;20258;-74
2022/11/15 11:05:28;;;;;;;49.13;26.10;;;21.10;59.90;;;;;;4986287;28;20642;-73
2022/11/15 11:08:21;;;;;;;54.50;28.75;;;21.00;60.70;;;;;;5002280;28;20314;-73
2022/11/15 11:10:55;;;;;;;42.88;24.83;;;20.90;60.40;;;;;;4942978;28;20229;-75
2022/11/15 11:13:31;;;;;;;44.60;25.80;;;21.00;61.80;;;;;;4943122;28;20236;-74
2022/11/15 11:16:38;;;;;;;57.33;28.10;;;21.20;61.30;;;;;;4942279;28;20624;-74
2022/11/15 11:19:51;;;;;;;48.65;28.48;;;21.50;58.80;;;;;;4905231;29;20204;-74
2022/11/15 11:22:49;;;;;;;52.45;27.08;;;21.60;59.60;;;;;;4852781;29;20210;-74
2022/11/15 11:25:18;;;;;;;56.63;29.25;;;21.70;59.50;;;;;;4855579;29;20301;-74
2022/11/15 11:27:57;;;;;;;55.97;30.20;;;21.80;59.00;;;;;;4852347;29;20237;-74
2022/11/15 11:30:54;;;;;;;54.53;29.73;;;21.80;58.20;;;;;;4851515;29;20237;-74
2022/11/15 11:33:41;;;;;;;50.72;28.20;;;22.00;57.20;;;;;;4854161;29;20971;-74
2022/11/15 11:36:37;;;;;;;57.92;31.80;;;22.20;60.30;;;;;;4853828;29;20206;-73
2022/11/15 11:39:37;;;;;;;56.83;32.13;;;22.30;58.00;;;;;;4853551;29;20197;-73
2022/11/15 11:42:09;;;;;;;55.20;30.65;;;22.50;56.70;;;;;;4853002;29;20281;-73
2022/11/15 11:44:53;;;;;;;51.17;29.17;;;22.70;57.70;;;;;;4854906;29;20203;-73
2022/11/15 11:47:28;;;;;;;61.38;31.60;;;22.80;58.40;;;;;;4854363;29;20309;-73
2022/11/15 11:50:00;;;;;;;59.92;30.02;;;22.90;55.40;;;;;;4852773;29;20284;-74
2022/11/15 11:52:34;;;;;;;47.88;28.33;;;22.90;55.30;;;;;;4854643;29;20206;-74
2022/11/15 11:55:16;;;;;;;55.45;29.92;;;23.00;57.70;;;;;;4901084;29;20281;-73
2022/11/15 11:58:09;;;;;;;55.50;29.67;;;23.00;55.20;;;;;;4958653;28;20207;-73
2022/11/15 12:00:41;;;;;;;49.55;27.85;;;22.70;54.90;;;;;;5004984;28;20196;-78
2022/11/15 12:03:36;;;;;;;48.80;27.58;;;22.60;57.50;;;;;;5004967;28;20185;-79
2022/11/15 12:06:10;;;;;;;45.65;27.35;;;22.60;56.80;;;;;;5004681;28;20206;-79
2022/11/15 12:08:41;;;;;;;46.75;27.63;;;22.00;56.40;;;;;;5006020;28;20699;-76
2022/11/15 12:11:24;;;;;;;49.70;29.25;;;21.70;56.70;;;;;;5005041;28;20292;-76
2022/11/15 12:13:56;;;;;;;41.33;24.83;;;21.20;56.10;;;;;;5001592;28;20248;-75
2022/11/15 12:16:30;;;;;;;52.50;27.50;;;20.90;58.60;;;;;;5005774;28;20177;-77
2022/11/15 12:19:01;;;;;;;41.83;25.88;;;20.70;58.30;;;;;;5002684;28;20188;-74
2022/11/15 12:22:03;;;;;;;43.13;24.13;;;20.60;59.70;;;;;;5004322;28;20220;-75
2022/11/15 12:24:39;;;;;;;44.63;24.23;;;20.50;59.20;;;;;;5003245;28;20184;-75
2022/11/15 12:28:03;;;;;;;38.40;23.45;;;20.60;60.70;;;;;;4999151;28;20185;-74
2022/11/15 12:30:43;;;;;;;43.40;23.25;;;20.70;58.60;;;;;;4930392;29;20211;-75
2022/11/15 12:33:29;;;;;;;37.03;21.13;;;20.80;58.50;;;;;;4927385;29;20202;-73
2022/11/15 12:36:03;;;;;;;38.65;23.42;;;20.90;58.30;;;;;;4929691;29;20270;-75
2022/11/15 12:39:01;;;;;;;33.72;21.52;;;20.80;59.60;;;;;;4921283;29;20191;-75
2022/11/15 12:41:32;;;;;;;36.22;23.27;;;20.60;59.60;;;;;;4936547;29;20196;-75
2022/11/15 12:43:59;;;;;;;39.53;23.67;;;20.30;58.60;;;;;;4938762;29;20199;-76
2022/11/15 12:46:44;;;;;;;42.15;23.05;;;20.10;58.80;;;;;;4934523;29;20191;-76
2022/11/15 12:49:25;;;;;;;43.80;23.85;;;20.30;60.20;;;;;;4931937;29;20190;-78
2022/11/15 12:51:52;;;;;;;38.40;23.30;;;20.00;58.40;;;;;;4934952;29;20293;-73
2022/11/15 12:54:23;;;;;;;39.85;22.48;;;20.00;59.10;;;;;;4928668;29;20593;-72
2022/11/15 12:57:06;;;;;;;40.33;23.63;;;20.00;59.90;;;;;;4933323;29;20334;-74
2022/11/15 13:00:02;;;;;;;36.20;21.75;;;19.90;59.20;;;;;;4932741;29;20187;-72
2022/11/15 13:02:37;;;;;;;38.58;23.83;;;19.80;59.50;;;;;;4933274;29;20187;-75